»·PEaware :: SWA5425 KLAS-KSFO

SWA5425 :: KLAS-KSFO

FLIGHT INFORMATION

Flight Status: Arrived
Operator:
Southwest Airlines
More flights by this operator :: More flights under this callsign
Pilot: Cody B. (17747)
Aircraft: BOEING 737-800
(B738)
More flights by this aircraft type
Origin: KLAS McCarran Intl
United States
Destination: KSFO San Francisco Intl
United States
More flights between these airports :: More routes between these airports
Route: +SHEAD1 OAL INYOE DYAMD3
File this flight plan on PilotEdge
Remarks:
Altitude:
(Current/Filed)
36,000ft
Speed:
(Current/Filed)
463kts
Departed: 28-Jul-18 08:47 PM
Arrived: 28-Jul-18 10:03 PM
Distance/Time
Traveled:
359nm/1:16
Distance/Time
To Go:
Arrived

Flight Plot

Page will automatically refresh every two minutes.

Flight plan parsing failed; only flown route is shown


Map Options




Map Legend


Flown Route
Filed Route
Departure Airport
Arrival Airport
Navaid (VOR, NDB)
Fix

Horizontal Profiles

Position Reports

Time Latitude Longitude Heading Altitude Ground
Speed
28-Jul-18 19:20 36.079934 -115.147125 61 2189ft 0kts
28-Jul-18 19:21 36.079934 -115.147125 61 2189ft 0kts
28-Jul-18 19:22 36.079934 -115.147125 61 2189ft 0kts
28-Jul-18 19:23 36.079934 -115.147125 61 2189ft 0kts
28-Jul-18 19:24 36.079934 -115.147125 61 2189ft 0kts
28-Jul-18 19:25 36.079934 -115.147125 61 2189ft 0kts
28-Jul-18 19:26 36.079934 -115.147125 61 2189ft 0kts
28-Jul-18 19:27 36.079934 -115.147125 61 2189ft 0kts
28-Jul-18 19:28 36.079934 -115.147125 61 2189ft 0kts
28-Jul-18 19:29 36.079934 -115.147125 61 2189ft 0kts
28-Jul-18 19:30 36.079934 -115.147125 61 2189ft 0kts
28-Jul-18 19:31 36.079934 -115.147125 61 2189ft 0kts
28-Jul-18 19:32 36.079934 -115.147125 61 2189ft 0kts
28-Jul-18 19:33 36.079934 -115.147125 61 2189ft 0kts
28-Jul-18 19:34 36.079934 -115.147125 61 2189ft 0kts
28-Jul-18 19:35 36.079934 -115.147125 61 2189ft 0kts
28-Jul-18 19:36 36.079934 -115.147125 61 2189ft 0kts
28-Jul-18 19:37 36.079934 -115.147125 61 2189ft 0kts
28-Jul-18 19:38 36.079934 -115.147125 61 2189ft 0kts
28-Jul-18 19:39 36.079934 -115.147125 61 2189ft 0kts
28-Jul-18 19:40 36.079934 -115.147125 61 2189ft 0kts
28-Jul-18 19:41 36.079934 -115.147125 61 2189ft 0kts
28-Jul-18 19:42 36.079934 -115.147125 61 2189ft 0kts
28-Jul-18 19:43 36.079934 -115.147125 61 2189ft 0kts
28-Jul-18 19:44 36.079934 -115.147125 61 2189ft 0kts
28-Jul-18 19:45 36.079934 -115.147125 61 2189ft 0kts
28-Jul-18 19:46 36.079934 -115.147125 61 2189ft 0kts
28-Jul-18 19:47 36.079934 -115.147125 61 2189ft 0kts
28-Jul-18 19:48 36.079934 -115.147125 61 2189ft 0kts
28-Jul-18 19:49 36.079934 -115.147125 61 2189ft 0kts
28-Jul-18 19:50 36.079934 -115.147125 61 2189ft 0kts
28-Jul-18 19:51 36.079934 -115.147125 61 2189ft 0kts
28-Jul-18 19:52 36.079934 -115.147125 61 2189ft 0kts
28-Jul-18 19:53 36.079934 -115.147125 61 2189ft 0kts
28-Jul-18 19:54 36.079934 -115.147125 61 2189ft 0kts
28-Jul-18 19:55 36.079934 -115.147125 61 2189ft 0kts
28-Jul-18 19:56 36.079934 -115.147125 61 2189ft 0kts
28-Jul-18 19:57 36.079934 -115.147125 61 2189ft 0kts
28-Jul-18 19:58 36.079934 -115.147125 61 2189ft 0kts
28-Jul-18 19:59 36.079934 -115.147125 61 2189ft 0kts
28-Jul-18 20:00 36.079934 -115.147125 61 2189ft 0kts
28-Jul-18 20:01 36.079934 -115.147125 61 2189ft 0kts
28-Jul-18 20:02 36.079934 -115.147125 61 2189ft 0kts
28-Jul-18 20:03 36.079934 -115.147125 61 2189ft 0kts
28-Jul-18 20:04 36.079934 -115.147125 61 2189ft 0kts
28-Jul-18 20:05 36.079934 -115.147125 61 2189ft 0kts
28-Jul-18 20:06 36.079934 -115.147125 61 2189ft 0kts
28-Jul-18 20:07 36.079934 -115.147125 61 2189ft 0kts
28-Jul-18 20:08 36.079934 -115.147125 61 2189ft 0kts
28-Jul-18 20:09 36.079934 -115.147125 61 2189ft 0kts
28-Jul-18 20:10 36.079934 -115.147125 61 2189ft 0kts
28-Jul-18 20:11 36.079934 -115.147125 61 2189ft 0kts
28-Jul-18 20:12 36.079934 -115.147125 61 2189ft 0kts
28-Jul-18 20:13 36.079934 -115.147125 61 2189ft 0kts
28-Jul-18 20:14 36.079934 -115.147125 61 2189ft 0kts
28-Jul-18 20:15 36.079934 -115.147125 61 2189ft 0kts
28-Jul-18 20:16 36.079934 -115.147125 61 2189ft 0kts
28-Jul-18 20:17 36.079934 -115.147125 61 2189ft 0kts
28-Jul-18 20:18 36.079934 -115.147125 61 2189ft 0kts
28-Jul-18 20:19 36.079934 -115.147125 61 2189ft 0kts
28-Jul-18 20:20 36.079934 -115.147125 61 2189ft 0kts
28-Jul-18 20:21 36.079934 -115.147125 61 2189ft 0kts
28-Jul-18 20:22 36.079934 -115.147125 61 2189ft 0kts
28-Jul-18 20:23 36.079934 -115.147125 61 2189ft 0kts
28-Jul-18 20:24 36.079847 -115.147561 99 2189ft 2kts
28-Jul-18 20:25 36.080098 -115.147924 156 2189ft 0kts
28-Jul-18 20:26 36.080098 -115.147924 156 2189ft 0kts
28-Jul-18 20:27 36.080098 -115.147924 156 2189ft 0kts
28-Jul-18 20:28 36.080098 -115.147924 156 2189ft 0kts
28-Jul-18 20:29 36.079724 -115.147731 158 2189ft 4kts
28-Jul-18 20:30 36.079236 -115.147463 155 2189ft 0kts
28-Jul-18 20:31 36.079236 -115.147463 155 2189ft 0kts
28-Jul-18 20:32 36.078930 -115.147287 155 2188ft 3kts
28-Jul-18 20:33 36.078422 -115.145710 95 2189ft 7kts
28-Jul-18 20:34 36.078276 -115.142145 89 2189ft 13kts
28-Jul-18 20:35 36.078278 -115.136786 89 2189ft 18kts
28-Jul-18 20:36 36.078280 -115.130585 89 2189ft 16kts
28-Jul-18 20:37 36.078276 -115.125229 89 2188ft 14kts
28-Jul-18 20:38 36.077743 -115.121856 128 2189ft 5kts
28-Jul-18 20:39 36.077413 -115.121408 143 2189ft 0kts
28-Jul-18 20:40 36.077413 -115.121407 143 2189ft 0kts
28-Jul-18 20:41 36.077412 -115.121407 143 2189ft 0kts
28-Jul-18 20:42 36.077412 -115.121407 143 2189ft 0kts
28-Jul-18 20:43 36.077412 -115.121407 143 2189ft 0kts
28-Jul-18 20:44 36.077412 -115.121407 143 2189ft 0kts
28-Jul-18 20:45 36.077388 -115.121387 147 2189ft 0kts
28-Jul-18 20:46 36.076779 -115.121264 182 2189ft 4kts
28-Jul-18 20:47 36.076428 -115.123439 270 2189ft 16kts
28-Jul-18 20:48 36.076382 -115.141269 269 2189ft 140kts
28-Jul-18 20:49 36.076117 -115.202674 269 3905ft 193kts
28-Jul-18 20:50 36.062829 -115.266026 214 6047ft 213kts
28-Jul-18 20:51 36.001850 -115.290029 204 7412ft 256kts
28-Jul-18 20:52 35.938735 -115.343644 224 8989ft 284kts
28-Jul-18 20:53 35.888954 -115.435224 266 11572ft 296kts
28-Jul-18 20:54 35.889223 -115.520802 271 13469ft 307kts
28-Jul-18 20:55 35.891017 -115.628082 270 15608ft 320kts
28-Jul-18 20:56 35.892722 -115.734979 270 17337ft 337kts
28-Jul-18 20:57 35.894585 -115.856616 270 18745ft 366kts
28-Jul-18 20:58 35.914101 -115.978514 305 20583ft 376kts
28-Jul-18 20:59 35.986486 -116.072496 316 22321ft 384kts
28-Jul-18 21:00 36.064945 -116.163805 316 23918ft 393kts
28-Jul-18 21:01 36.144230 -116.255852 315 25361ft 401kts
28-Jul-18 21:02 36.226218 -116.351138 315 26696ft 408kts
28-Jul-18 21:03 36.309114 -116.447662 314 28059ft 411kts
28-Jul-18 21:04 36.391941 -116.544339 313 29643ft 404kts
28-Jul-18 21:05 36.471834 -116.637763 313 31365ft 386kts
28-Jul-18 21:06 36.546909 -116.725784 311 32767ft 365kts
28-Jul-18 21:07 36.626769 -116.795866 322 33975ft 341kts
28-Jul-18 21:08 36.705955 -116.855907 322 34354ft 332kts
28-Jul-18 21:09 36.781214 -116.912953 321 35122ft 303kts
28-Jul-18 21:10 36.849576 -116.964820 320 35504ft 279kts
28-Jul-18 21:11 36.914643 -117.014359 319 35137ft 282kts
28-Jul-18 21:12 36.977994 -117.064555 320 35341ft 268kts
28-Jul-18 21:13 37.052215 -117.092397 314 34466ft 280kts
28-Jul-18 21:14 37.107410 -117.159753 318 34259ft 287kts
28-Jul-18 21:15 37.176149 -117.214589 321 34259ft 296kts
28-Jul-18 21:16 37.247791 -117.270250 321 34158ft 309kts
28-Jul-18 21:17 37.323073 -117.326450 325 34196ft 323kts
28-Jul-18 21:18 37.404435 -117.379353 325 34187ft 338kts
28-Jul-18 21:19 37.489755 -117.434804 326 34187ft 354kts
28-Jul-18 21:20 37.579262 -117.493105 326 34186ft 372kts
28-Jul-18 21:21 37.673123 -117.554390 326 34186ft 390kts
28-Jul-18 21:22 37.771098 -117.618495 326 34189ft 406kts
28-Jul-18 21:23 37.870636 -117.683814 326 34192ft 421kts
28-Jul-18 21:24 37.967703 -117.763504 294 34246ft 409kts
28-Jul-18 21:25 37.986671 -117.902316 262 34205ft 408kts
28-Jul-18 21:26 37.973183 -118.044272 260 34075ft 407kts
28-Jul-18 21:27 37.958316 -118.186688 260 34100ft 407kts
28-Jul-18 21:28 37.943198 -118.328572 260 34372ft 408kts
28-Jul-18 21:29 37.927829 -118.470578 260 34383ft 408kts
28-Jul-18 21:30 37.912289 -118.612280 260 34381ft 408kts
28-Jul-18 21:31 37.897306 -118.746707 259 34389ft 407kts
28-Jul-18 21:32 37.881316 -118.888356 259 34388ft 406kts
28-Jul-18 21:33 37.865217 -119.029379 259 34386ft 406kts
28-Jul-18 21:34 37.848954 -119.170416 259 34385ft 406kts
28-Jul-18 21:35 37.832565 -119.311297 259 34385ft 408kts
28-Jul-18 21:36 37.815934 -119.452629 259 34386ft 407kts
28-Jul-18 21:37 37.799203 -119.593558 258 34327ft 408kts
28-Jul-18 21:38 37.782654 -119.730882 258 33481ft 420kts
28-Jul-18 21:39 37.765211 -119.874113 258 32094ft 413kts
28-Jul-18 21:40 37.747881 -120.015007 258 30809ft 409kts
28-Jul-18 21:41 37.730285 -120.156762 259 29438ft 407kts
28-Jul-18 21:42 37.712695 -120.297169 258 28062ft 402kts
28-Jul-18 21:43 37.695463 -120.434472 259 26587ft 398kts
28-Jul-18 21:44 37.679801 -120.569887 259 24756ft 388kts
28-Jul-18 21:45 37.665205 -120.696302 259 23120ft 381kts
28-Jul-18 21:46 37.650203 -120.823014 258 22615ft 379kts
28-Jul-18 21:47 37.634488 -120.953360 259 20952ft 380kts
28-Jul-18 21:48 37.617170 -121.085003 258 18700ft 391kts
28-Jul-18 21:49 37.599136 -121.219676 259 16383ft 403kts
28-Jul-18 21:50 37.583600 -121.344411 260 14497ft 348kts
28-Jul-18 21:51 37.569847 -121.459267 261 12661ft 347kts
28-Jul-18 21:52 37.557021 -121.570085 262 11196ft 301kts
28-Jul-18 21:53 37.543568 -121.659813 253 9990ft 286kts
28-Jul-18 21:54 37.521115 -121.753168 253 8663ft 287kts
28-Jul-18 21:55 37.499427 -121.842926 254 7336ft 268kts
28-Jul-18 21:56 37.477904 -121.927339 252 6019ft 253kts
28-Jul-18 21:57 37.465329 -122.012967 297 4664ft 248kts
28-Jul-18 21:58 37.497542 -122.088058 298 4418ft 243kts
28-Jul-18 21:59 37.527813 -122.159431 298 3561ft 229kts
28-Jul-18 22:00 37.555248 -122.224068 298 2415ft 196kts
28-Jul-18 22:01 37.578652 -122.279728 298 1380ft 149kts
28-Jul-18 22:02 37.597084 -122.323616 297 669ft 145kts
28-Jul-18 22:03 37.614998 -122.366128 297 21ft 113kts
28-Jul-18 22:04 37.618972 -122.378191 253 21ft 2kts
28-Jul-18 22:05 37.618931 -122.378363 253 21ft 0kts
28-Jul-18 22:06 37.617909 -122.379484 172 20ft 7kts
28-Jul-18 22:07 37.615945 -122.380070 209 21ft 10kts
28-Jul-18 22:08 37.612042 -122.382667 207 21ft 15kts
28-Jul-18 22:09 37.610861 -122.384732 339 20ft 5kts
28-Jul-18 22:10 37.612192 -122.384706 5 21ft 5kts
28-Jul-18 22:11 37.612633 -122.384670 5 21ft 0kts
28-Jul-18 22:12 37.612633 -122.384670 5 21ft 0kts
28-Jul-18 22:13 37.612633 -122.384670 5 21ft 0kts
28-Jul-18 22:14 37.612633 -122.384669 4 21ft 0kts

Navigation Log

Ident Type
Flight plan parsing failed, navigation log unavailable